This is the latest recevied weather packets stored in our database for station/object KJ4W. If no packets are shown the sender has not sent any weather packets the latest 1 day(s).
| Time | Temp. | Humidity | Pressure | Rain* | Wind** | Luminosity | Snow |
|---|---|---|---|---|---|---|---|
| 1836274766 | 20° C | 83% | 1017 hPa | 0 mm | 0 m/s | - | - |
| 1836273866 | 20.56° C | 82% | 1017 hPa | 0 mm | 0 m/s | - | - |
| 1778039933 | 16.11° C | 92% | 1007.3 hPa | 0 mm | 1.34 m/s, 314° | - | - |
| 1778039032 | 17.22° C | 94% | 1007 hPa | 0 mm | 0 m/s | - | - |
| 1778038131 | 18.33° C | 96% | 1006.1 hPa | 0 mm | 2.24 m/s, 180° | - | - |
| 1778037231 | 17.78° C | 96% | 1006 hPa | 0 mm | 2.24 m/s, 157° | - | - |
| 1778036334 | 17.78° C | 96% | 1006 hPa | 0 mm | 2.68 m/s, 169° | - | - |
| 1778035432 | 17.78° C | 96% | 1005.9 hPa | 0 mm | 3.13 m/s, 192° | - | - |
| 1778034531 | 17.22° C | 97% | 1006 hPa | 0 mm | 1.79 m/s, 179° | - | - |
| 1778033631 | 17.22° C | 97% | 1006 hPa | 0 mm | 2.24 m/s, 199° | - | - |
| 1778032733 | 17.22° C | 97% | 1005.9 hPa | 0 mm | 0.89 m/s, 178° | - | - |
| 1778031832 | 17.22° C | 97% | 1005.9 hPa | 0 mm | 3.58 m/s, 175° | - | - |
| 1778030931 | 17.22° C | 97% | 1005.9 hPa | 0 mm | 0.45 m/s, 140° | - | - |
| 1778030031 | 17.22° C | 97% | 1006 hPa | 0 mm | 0.89 m/s, 177° | - | - |
| 1778029133 | 17.22° C | 97% | 1006.2 hPa | 0 mm | 2.68 m/s, 182° | - | - |
| 1778028232 | 17.22° C | 97% | 1006.5 hPa | 0 mm | 1.79 m/s, 180° | - | - |
| 1778027331 | 17.22° C | 97% | 1006.3 hPa | 0 mm | 2.68 m/s, 173° | - | - |
| 1778026431 | 17.22° C | 97% | 1006.2 hPa | 0 mm | 2.24 m/s, 181° | - | - |
| 1778025533 | 17.22° C | 97% | 1006.5 hPa | 0 mm | 0.89 m/s, 199° | - | - |
| 1778024632 | 17.22° C | 97% | 1006.7 hPa | 0 mm | 2.68 m/s, 205° | - | - |
| 1778023731 | 17.22° C | 97% | 1006.9 hPa | 0 mm | 2.68 m/s, 167° | - | - |
| 1778022831 | 17.22° C | 97% | 1006.9 hPa | 0 mm | 2.24 m/s, 183° | - | - |
| 1778021931 | 17.22° C | 97% | 1007 hPa | 0 mm | 0.89 m/s, 159° | - | - |
| 1778021031 | 17.22° C | 97% | 1007.2 hPa | 0 mm | 1.34 m/s, 202° | - | - |
| 1778020131 | 17.22° C | 96% | 1007.3 hPa | 0 mm | 4.47 m/s, 176° | - | - |
* Rain latest hour (hover to see other rain measurements)
** Current wind speed in m/s (hover to see current wind gust speed)